Time;durP1;ratioP1;P1;durP2;ratioP2;P2;SDS_P1;SDS_P2;PMS_P1;PMS_P2;Temp;Humidity;BMP_temperature;BMP_pressure;BME280_temperature;BME280_humidity;BME280_pressure;Samples;Min_cycle;Max_cycle;Signal;HPM_P1;HPM_P2
2022/07/15 00:11:09;;;;;;;28.63;12.50;;;26.40;99.90;;;;;;5134395;27;20741;-72
2022/07/15 00:13:35;;;;;;;23.70;12.85;;;26.40;99.90;;;;;;4989581;28;20503;-71
2022/07/15 00:16:02;;;;;;;21.73;13.52;;;26.40;99.90;;;;;;4989448;28;20085;-70
2022/07/15 00:18:48;;;;;;;21.08;13.13;;;26.40;99.90;;;;;;4988000;28;20093;-71
2022/07/15 00:21:15;;;;;;;21.27;13.50;;;26.40;99.90;;;;;;4948087;29;20098;-69
2022/07/15 00:23:41;;;;;;;23.85;13.10;;;26.50;99.90;;;;;;4949979;29;20046;-71
2022/07/15 00:32:41;;;;;;;16.85;10.73;;;26.60;99.90;;;;;;4819615;29;20034;-67
2022/07/15 00:35:28;;;;;;;17.55;11.55;;;26.60;99.90;;;;;;4801842;29;20405;-67
2022/07/15 00:44:42;;;;;;;20.95;13.55;;;26.40;99.90;;;;;;4941429;27;5481870;-67
2022/07/15 00:50:55;;;;;;;14.73;10.98;;;26.40;99.90;;;;;;4875958;29;20034;-67
2022/07/15 00:53:42;;;;;;;16.35;7.97;;;26.30;99.90;;;;;;4855969;29;20502;-66
2022/07/15 00:56:11;;;;;;;9.70;6.63;;;26.10;99.90;;;;;;4801379;29;20051;-67
2022/07/15 00:58:59;;;;;;;17.10;10.65;;;25.90;99.90;;;;;;4800977;29;20043;-67
2022/07/15 01:11:53;;;;;;;10.02;3.00;;;25.30;99.90;;;;;;5101300;27;20278;-66
2022/07/15 01:14:39;;;;;;;19.35;4.18;;;25.10;99.90;;;;;;5003531;28;20128;-66
2022/07/15 01:23:18;;;;;;;9.93;3.53;;;24.50;99.90;;;;;;4783737;30;20046;-69
2022/07/15 01:28:51;;;;;;;7.15;4.30;;;24.60;99.90;;;;;;4747691;30;20041;-68
2022/07/15 01:38:00;;;;;;;5.97;3.70;;;24.60;99.90;;;;;;4855996;27;7343806;-67
2022/07/15 01:40:27;;;;;;;8.20;4.30;;;24.60;99.90;;;;;;4950313;29;20419;-68
2022/07/15 01:59:00;;;;;;;6.85;3.75;;;24.80;99.90;;;;;;5191454;27;20365;-67
2022/07/15 02:04:53;;;;;;;4.68;3.22;;;24.80;99.90;;;;;;5028683;28;20131;-68
2022/07/15 02:10:45;;;;;;;4.13;2.85;;;25.00;99.90;;;;;;4892971;29;20032;-68
2022/07/15 02:19:25;;;;;;;4.95;3.08;;;24.90;99.90;;;;;;4695802;30;20077;-67
2022/07/15 02:21:52;;;;;;;10.63;3.10;;;25.00;99.90;;;;;;4728236;30;20048;-66
2022/07/15 02:41:49;;;;;;;4.43;3.53;;;25.30;99.90;;;;;;5087125;28;20407;-67
2022/07/15 02:44:16;;;;;;;3.95;3.10;;;25.50;99.90;;;;;;4978257;28;20522;-68
2022/07/15 02:50:29;;;;;;;4.15;2.70;;;25.70;99.90;;;;;;4874588;29;20510;-68
2022/07/15 02:58:49;;;;;;;5.15;2.53;;;26.10;99.90;;;;;;4783338;30;20047;-69
2022/07/15 03:04:21;;;;;;;3.10;2.50;;;26.30;99.90;;;;;;5095820;27;20410;-65
2022/07/15 03:18:33;;;;;;;4.15;2.00;;;26.60;99.90;;;;;;4920895;29;20064;-66
2022/07/15 03:21:39;;;;;;;3.15;2.17;;;26.80;99.90;;;;;;4921176;29;20039;-66
2022/07/15 03:27:12;;;;;;;3.53;2.20;;;27.00;99.90;;;;;;4846579;29;20037;-66
2022/07/15 03:35:33;;;;;;;4.57;1.92;;;27.20;99.90;;;;;;5090216;27;20427;-67
2022/07/15 03:38:19;;;;;;;3.00;1.90;;;27.40;99.90;;;;;;5027040;28;20042;-67
2022/07/15 03:44:32;;;;;;;3.03;1.80;;;27.70;99.90;;;;;;4874076;29;20038;-66
2022/07/15 03:47:18;;;;;;;3.65;2.40;;;27.80;99.90;;;;;;4835693;29;20039;-64
2022/07/15 03:59:01;;;;;;;1.87;1.53;;;28.20;99.90;;;;;;4946182;27;4868952;-64
2022/07/15 04:07:20;;;;;;;1.67;1.52;;;28.20;99.90;;;;;;4909161;29;20537;-68
2022/07/15 04:10:07;;;;;;;6.30;1.70;;;28.20;99.90;;;;;;4911023;29;20130;-69
2022/07/15 04:12:34;;;;;;;1.50;1.33;;;28.10;99.90;;;;;;4873589;29;20124;-68
2022/07/15 04:18:06;;;;;;;4.03;1.73;;;28.10;99.90;;;;;;4844775;29;20034;-68
2022/07/15 04:23:40;;;;;;;2.90;1.60;;;28.40;99.90;;;;;;4809784;29;20031;-69
2022/07/15 04:39:08;;;;;;;10.50;2.35;;;28.50;99.90;;;;;;5007514;28;20417;-68
2022/07/15 04:41:55;;;;;;;3.33;1.63;;;28.50;99.90;;;;;;4901938;29;20029;-68
2022/07/15 04:44:41;;;;;;;5.28;1.42;;;28.50;99.90;;;;;;4846375;29;20053;-67
2022/07/15 04:47:27;;;;;;;10.45;2.15;;;28.40;99.90;;;;;;4774036;30;20512;-67
2022/07/15 04:53:01;;;;;;;3.00;1.15;;;28.30;99.90;;;;;;4700237;30;20609;-68
2022/07/15 05:02:17;;;;;;;5.82;4.75;;;28.30;99.90;;;;;;4578050;27;15701089;-66
2022/07/15 05:08:10;;;;;;;6.80;3.42;;;28.20;99.90;;;;;;4949740;29;20035;-68
2022/07/15 05:14:02;;;;;;;5.13;2.60;;;28.10;99.90;;;;;;4856446;29;20455;-68
2022/07/15 05:26:36;;;;;;;3.17;2.40;;;28.00;99.90;;;;;;5027509;27;2734592;-67
2022/07/15 05:35:16;;;;;;;3.67;2.53;;;27.90;99.90;;;;;;4901525;29;20041;-68
2022/07/15 05:38:02;;;;;;;6.82;2.92;;;27.90;99.90;;;;;;4843232;29;20091;-67
2022/07/15 05:46:22;;;;;;;5.03;2.72;;;28.00;99.90;;;;;;4744803;30;20048;-67
2022/07/15 06:02:30;;;;;;;3.63;2.58;;;28.00;99.90;;;;;;4903920;27;6494263;-65
2022/07/15 06:08:03;;;;;;;4.35;2.40;;;28.00;99.90;;;;;;4950430;29;20126;-66
2022/07/15 06:14:16;;;;;;;3.70;2.35;;;28.00;99.90;;;;;;4837951;29;20030;-67
2022/07/15 06:41:19;;;;;;;5.10;3.60;;;28.10;99.90;;;;;;4847821;29;20113;-65
2022/07/15 06:43:46;;;;;;;6.50;2.88;;;28.10;99.90;;;;;;4756249;30;20032;-65
2022/07/15 06:49:19;;;;;;;4.40;2.28;;;28.10;99.90;;;;;;4747412;30;20053;-64
2022/07/15 06:51:46;;;;;;;5.13;2.10;;;28.10;99.90;;;;;;4678303;30;20122;-64
2022/07/15 07:01:00;;;;;;;4.32;2.25;;;28.00;99.90;;;;;;5194534;27;20365;-66
2022/07/15 07:03:27;;;;;;;3.08;2.17;;;28.00;99.90;;;;;;5173556;27;20364;-66
2022/07/15 07:06:13;;;;;;;5.60;2.50;;;28.00;99.90;;;;;;5173946;27;20106;-66
2022/07/15 07:09:00;;;;;;;6.00;2.92;;;28.00;99.90;;;;;;5068923;28;20104;-66
2022/07/15 07:11:46;;;;;;;8.88;2.97;;;28.10;99.90;;;;;;4987298;28;20511;-67
2022/07/15 07:20:06;;;;;;;3.65;2.30;;;28.20;99.90;;;;;;4846335;29;20046;-65
2022/07/15 07:22:52;;;;;;;2.92;2.35;;;28.20;99.90;;;;;;4845771;29;20030;-66
2022/07/15 07:25:58;;;;;;;6.88;2.97;;;28.30;99.90;;;;;;4782884;29;20218;-65
2022/07/15 07:41:45;;;;;;;6.30;3.80;;;28.50;99.90;;;;;;4985181;28;20480;-69
2022/07/15 07:47:18;;;;;;;8.48;4.90;;;28.60;99.90;;;;;;4819058;29;20473;-68
2022/07/15 07:50:05;;;;;;;7.20;4.07;;;28.70;99.90;;;;;;4764408;30;20040;-67
2022/07/15 08:04:38;;;;;;;8.02;5.18;;;28.60;99.90;;;;;;5089335;27;20376;-65
2022/07/15 08:07:24;;;;;;;9.35;4.63;;;28.50;99.90;;;;;;5080024;28;20346;-66
2022/07/15 08:13:00;;;;;;;6.20;5.60;;;28.40;99.90;;;;;;4921756;29;20040;-67
2022/07/15 08:15:46;;;;;;;13.23;7.68;;;28.40;99.90;;;;;;4920016;29;20487;-67
2022/07/15 08:21:20;;;;;;;18.83;13.07;;;28.50;99.90;;;;;;4902183;29;20047;-66
2022/07/15 08:24:06;;;;;;;13.80;10.50;;;28.40;99.90;;;;;;4906834;29;20423;-65
2022/07/15 08:57:05;;;;;;;9.35;7.53;;;28.30;99.90;;;;;;4639798;27;13235612;-67
2022/07/15 08:59:52;;;;;;;11.48;6.43;;;28.30;99.90;;;;;;4999526;28;20042;-66
2022/07/15 09:02:39;;;;;;;11.45;6.78;;;28.20;99.90;;;;;;4958413;28;20043;-66
2022/07/15 09:05:26;;;;;;;13.55;7.07;;;28.20;99.90;;;;;;4882901;29;20034;-67
2022/07/15 09:14:19;;;;;;;17.88;10.05;;;28.20;99.90;;;;;;4874948;29;20030;-66
2022/07/15 09:23:30;;;;;;;13.32;8.25;;;28.10;99.90;;;;;;5194580;27;20360;-66
2022/07/15 09:44:41;;;;;;;22.70;10.90;;;27.90;99.90;;;;;;4811326;29;20031;-67
2022/07/15 09:47:36;;;;;;;19.65;10.52;;;27.90;99.90;;;;;;4792089;29;20043;-67
2022/07/15 10:03:23;;;;;;;20.75;11.23;;;27.90;99.90;;;;;;4559425;27;16053354;-66
2022/07/15 10:09:39;;;;;;;20.27;11.68;;;27.80;99.90;;;;;;4969718;28;20034;-66
2022/07/15 10:15:36;;;;;;;29.65;16.48;;;27.80;99.90;;;;;;4774160;30;20055;-67
2022/07/15 10:18:33;;;;;;;25.05;12.52;;;27.90;99.90;;;;;;4725370;30;20047;-67
2022/07/15 10:21:29;;;;;;;18.48;14.75;;;28.00;99.90;;;;;;4720881;30;20546;-66
2022/07/15 10:24:26;;;;;;;168.65;150.63;;;27.90;99.90;;;;;;4686892;30;20046;-67
2022/07/15 10:37:00;;;;;;;44.25;25.90;;;27.60;99.90;;;;;;4918930;29;20032;-70
2022/07/15 10:43:03;;;;;;;62.08;29.73;;;27.60;99.90;;;;;;4799420;29;20043;-67
2022/07/15 10:46:09;;;;;;;51.25;28.73;;;27.60;99.90;;;;;;4799119;29;20125;-66
2022/07/15 10:48:36;;;;;;;50.20;26.95;;;27.60;99.90;;;;;;4752957;30;20044;-66
2022/07/15 10:57:17;;;;;;;35.22;18.60;;;27.80;99.90;;;;;;5084732;28;20433;-64
2022/07/15 11:00:04;;;;;;;33.38;17.42;;;27.70;99.90;;;;;;5057656;28;20036;-65
2022/07/15 11:06:16;;;;;;;33.08;15.40;;;27.70;99.90;;;;;;4924578;29;20020;-66
2022/07/15 11:08:43;;;;;;;34.72;14.20;;;27.60;99.90;;;;;;4855659;29;20038;-65
2022/07/15 11:11:30;;;;;;;27.15;12.85;;;27.60;99.90;;;;;;4855462;29;20396;-64
2022/07/15 11:14:56;;;;;;;29.98;13.88;;;27.60;99.90;;;;;;4818749;29;20035;-66
2022/07/15 11:36:25;;;;;;;34.08;16.45;;;27.20;99.90;;;;;;4882402;29;21118;-65
2022/07/15 11:48:17;;;;;;;41.63;18.85;;;27.40;99.90;;;;;;4729301;30;20543;-66
2022/07/15 11:50:56;;;;;;;37.92;19.80;;;27.40;99.90;;;;;;4729777;30;20036;-65
2022/07/15 11:53:24;;;;;;;42.15;22.70;;;27.40;99.90;;;;;;4728771;30;20048;-66
2022/07/15 11:55:56;;;;;;;41.80;24.50;;;27.30;99.90;;;;;;4728283;30;20033;-66
2022/07/15 12:04:32;;;;;;;42.42;21.52;;;27.30;99.90;;;;;;5028439;27;2560008;-65
2022/07/15 12:10:45;;;;;;;35.17;19.75;;;27.20;99.90;;;;;;4950573;29;20036;-65
2022/07/15 12:13:40;;;;;;;38.28;22.42;;;27.20;99.90;;;;;;4837893;29;20465;-65
2022/07/15 12:16:07;;;;;;;38.72;24.05;;;27.20;99.90;;;;;;4816048;29;20515;-66
2022/07/15 12:19:13;;;;;;;41.25;23.85;;;27.20;99.90;;;;;;4818417;29;20150;-66
2022/07/15 12:27:44;;;;;;;41.03;25.73;;;27.30;99.90;;;;;;4757705;30;20057;-67
2022/07/15 12:36:55;;;;;;;43.08;27.33;;;27.10;99.90;;;;;;5069249;28;20418;-66
2022/07/15 12:39:21;;;;;;;48.13;26.55;;;27.20;99.90;;;;;;5052294;28;20393;-66
2022/07/15 12:45:37;;;;;;;51.80;26.67;;;27.20;99.90;;;;;;4961569;28;20034;-65
2022/07/15 12:48:14;;;;;;;43.42;22.60;;;27.20;99.90;;;;;;4921784;29;20036;-66
2022/07/15 12:51:10;;;;;;;57.10;22.23;;;27.20;99.90;;;;;;4918236;29;20118;-65
2022/07/15 13:06:45;;;;;;;39.67;16.67;;;27.10;99.90;;;;;;5183017;27;20390;-64
2022/07/15 13:34:40;;;;;;;30.58;17.75;;;26.90;99.90;;;;;;5063964;28;20032;-65
2022/07/15 13:40:34;;;;;;;27.42;18.15;;;26.90;99.90;;;;;;4970850;28;20420;-66
2022/07/15 13:43:00;;;;;;;29.42;18.13;;;26.90;99.90;;;;;;4931220;29;20131;-67
2022/07/15 13:48:02;;;;;;;23.88;16.25;;;27.00;99.90;;;;;;5514711;22;20075;-67
2022/07/15 13:53:00;;;;;;;24.08;14.55;;;27.00;99.90;;;;;;5070575;28;20408;-66
2022/07/15 13:55:27;;;;;;;26.45;13.60;;;26.90;99.90;;;;;;5072420;28;20021;-66
2022/07/15 13:57:54;;;;;;;18.02;12.30;;;26.90;99.90;;;;;;5070085;28;20028;-66
2022/07/15 14:00:23;;;;;;;15.45;10.38;;;26.80;99.90;;;;;;5070875;28;20020;-66
2022/07/15 14:02:51;;;;;;;18.88;10.20;;;26.80;99.90;;;;;;5084805;28;20095;-67
2022/07/15 14:05:18;;;;;;;17.50;8.95;;;26.80;99.90;;;;;;5075131;28;20028;-67
2022/07/15 14:07:45;;;;;;;10.93;6.85;;;26.70;99.90;;;;;;5083445;28;20036;-67
2022/07/15 14:10:12;;;;;;;13.07;6.18;;;26.70;99.90;;;;;;5082609;28;20070;-67
2022/07/15 14:12:38;;;;;;;11.05;6.68;;;26.60;99.90;;;;;;5079850;28;20017;-67
2022/07/15 14:15:06;;;;;;;11.70;7.03;;;26.70;99.90;;;;;;5087697;28;20024;-66
2022/07/15 14:17:32;;;;;;;10.82;6.20;;;26.60;99.90;;;;;;5080055;28;20016;-68
2022/07/15 14:20:00;;;;;;;9.40;6.57;;;26.60;99.90;;;;;;5079800;28;20388;-67
2022/07/15 14:22:27;;;;;;;9.02;5.60;;;26.60;99.90;;;;;;5080816;28;20025;-67
2022/07/15 14:24:54;;;;;;;10.70;6.10;;;26.60;99.90;;;;;;5075770;28;20017;-68
2022/07/15 14:27:21;;;;;;;9.93;6.03;;;26.60;99.90;;;;;;5075374;28;20107;-68
2022/07/15 14:29:47;;;;;;;10.23;6.38;;;26.60;99.90;;;;;;5083595;28;20017;-67
2022/07/15 14:32:14;;;;;;;13.52;6.30;;;26.60;99.90;;;;;;5069519;28;20476;-67
2022/07/15 14:34:41;;;;;;;8.95;5.80;;;26.60;99.90;;;;;;5073962;28;20021;-68
2022/07/15 14:37:07;;;;;;;13.95;6.28;;;26.60;99.90;;;;;;5081930;28;20012;-67
2022/07/15 14:39:34;;;;;;;12.93;6.57;;;26.60;99.90;;;;;;5089141;28;20027;-67
2022/07/15 14:42:00;;;;;;;15.13;6.70;;;26.60;99.90;;;;;;5071912;28;20104;-67
2022/07/15 14:44:27;;;;;;;12.25;6.45;;;26.70;99.90;;;;;;5072022;28;20103;-66
2022/07/15 14:46:53;;;;;;;10.73;5.80;;;26.70;99.90;;;;;;5075156;28;20455;-67
2022/07/15 14:49:20;;;;;;;13.52;7.65;;;26.70;99.90;;;;;;5089120;28;20070;-67
2022/07/15 14:51:47;;;;;;;12.77;7.78;;;26.70;99.90;;;;;;5085741;28;20036;-66
2022/07/15 14:54:13;;;;;;;14.18;7.18;;;26.70;99.90;;;;;;5085500;28;20009;-66
2022/07/15 14:56:40;;;;;;;13.60;7.05;;;26.70;99.90;;;;;;5086417;28;20045;-67
2022/07/15 14:59:06;;;;;;;12.98;6.85;;;26.70;99.90;;;;;;5087438;28;20027;-67
2022/07/15 15:01:33;;;;;;;13.43;6.65;;;26.60;99.90;;;;;;5084621;28;20024;-66
2022/07/15 15:04:00;;;;;;;13.70;6.50;;;26.50;99.90;;;;;;5085225;28;20093;-66
2022/07/15 15:06:26;;;;;;;12.55;6.45;;;26.60;99.90;;;;;;5089134;28;20020;-66
2022/07/15 15:08:53;;;;;;;7.20;5.80;;;26.50;99.90;;;;;;5086151;28;20016;-66
2022/07/15 15:11:20;;;;;;;12.13;6.70;;;26.50;99.90;;;;;;5086996;28;20021;-66
2022/07/15 15:13:46;;;;;;;9.70;6.90;;;26.50;99.90;;;;;;5085413;28;20357;-66
2022/07/15 15:16:13;;;;;;;10.38;7.45;;;26.50;99.90;;;;;;5091207;28;20094;-67
2022/07/15 15:18:40;;;;;;;12.55;7.28;;;26.50;99.90;;;;;;5086176;28;20027;-66
2022/07/15 15:21:06;;;;;;;21.08;7.93;;;26.50;99.90;;;;;;5085345;28;20035;-66
2022/07/15 15:23:33;;;;;;;16.50;8.80;;;26.50;99.90;;;;;;5086380;28;20024;-68
2022/07/15 15:28:29;;;;;;;13.98;8.18;;;26.50;99.90;;;;;;5085775;28;20361;-67
2022/07/15 15:30:56;;;;;;;13.20;7.97;;;26.60;99.90;;;;;;5083223;28;20056;-71
2022/07/15 15:33:22;;;;;;;19.83;9.57;;;26.50;99.90;;;;;;5084017;28;20024;-68
2022/07/15 15:35:49;;;;;;;14.65;8.45;;;26.50;99.90;;;;;;5084668;28;20668;-68
2022/07/15 15:38:16;;;;;;;16.10;8.68;;;26.50;99.90;;;;;;5089809;28;20099;-70
2022/07/15 15:40:42;;;;;;;20.05;9.70;;;26.50;99.90;;;;;;5083008;28;20107;-67
2022/07/15 15:43:10;;;;;;;12.27;7.57;;;26.50;99.90;;;;;;5077751;28;20551;-67
2022/07/15 15:45:37;;;;;;;14.45;8.18;;;26.50;99.90;;;;;;5083282;28;20032;-69
2022/07/15 15:48:04;;;;;;;16.13;8.00;;;26.50;99.90;;;;;;5088506;28;20047;-67
2022/07/15 15:50:31;;;;;;;13.70;8.90;;;26.40;99.90;;;;;;5085493;28;20119;-68
2022/07/15 15:52:57;;;;;;;13.45;8.60;;;26.40;99.90;;;;;;5076777;28;20024;-68
2022/07/15 15:55:24;;;;;;;12.02;8.13;;;26.40;99.90;;;;;;5083706;28;20012;-68
2022/07/15 15:57:50;;;;;;;16.20;8.63;;;26.40;99.90;;;;;;5082752;28;20691;-67
2022/07/15 16:00:17;;;;;;;12.90;8.18;;;26.40;99.90;;;;;;5082578;28;20033;-68
2022/07/15 16:02:43;;;;;;;12.68;9.02;;;26.40;99.90;;;;;;5080033;28;20494;-68
2022/07/15 16:05:10;;;;;;;14.60;8.30;;;26.50;99.90;;;;;;5074493;28;20036;-68
2022/07/15 16:07:37;;;;;;;10.43;6.75;;;26.40;99.90;;;;;;5074784;28;20031;-69
2022/07/15 16:10:04;;;;;;;13.30;7.75;;;26.40;99.90;;;;;;5083933;28;20059;-70
2022/07/15 16:12:31;;;;;;;14.50;8.10;;;26.50;99.90;;;;;;5094590;28;20026;-66
2022/07/15 16:14:57;;;;;;;13.57;8.77;;;26.40;99.90;;;;;;5094932;28;20424;-66
2022/07/15 16:17:24;;;;;;;14.13;8.40;;;26.40;99.90;;;;;;5094636;28;20023;-67
2022/07/15 16:19:50;;;;;;;18.92;9.98;;;26.30;99.90;;;;;;5095336;28;20016;-67
2022/07/15 16:24:46;;;;;;;31.83;13.88;;;26.40;99.90;;;;;;5084917;28;20044;-67
2022/07/15 16:27:13;;;;;;;27.45;14.35;;;26.30;99.90;;;;;;5083641;28;20264;-67
2022/07/15 16:29:39;;;;;;;31.08;14.13;;;26.30;99.90;;;;;;5085489;28;20396;-66
2022/07/15 16:32:06;;;;;;;25.83;13.82;;;26.30;99.90;;;;;;5094512;28;20279;-67
2022/07/15 16:34:32;;;;;;;32.13;15.13;;;26.30;99.90;;;;;;5094056;28;20376;-67
2022/07/15 16:36:59;;;;;;;24.13;13.40;;;26.30;99.90;;;;;;5082732;28;20456;-65
2022/07/15 16:39:26;;;;;;;28.65;14.35;;;26.20;99.90;;;;;;5083243;28;20032;-66
2022/07/15 16:41:52;;;;;;;26.98;13.90;;;26.20;99.90;;;;;;5082482;28;20031;-66
2022/07/15 16:44:19;;;;;;;25.38;13.82;;;26.30;99.90;;;;;;5084170;28;20026;-66
2022/07/15 16:46:46;;;;;;;23.45;13.43;;;26.30;99.90;;;;;;5084027;28;20349;-67
2022/07/15 16:49:12;;;;;;;20.30;12.43;;;26.30;99.90;;;;;;5082596;28;20111;-67
2022/07/15 16:51:39;;;;;;;22.17;12.25;;;26.30;99.90;;;;;;5084319;28;20086;-67
2022/07/15 16:54:05;;;;;;;18.08;10.43;;;26.20;99.90;;;;;;5084489;28;20013;-67
2022/07/15 16:56:32;;;;;;;18.40;9.93;;;26.20;99.90;;;;;;5082658;28;20016;-67
2022/07/15 16:58:58;;;;;;;12.90;8.90;;;26.30;99.90;;;;;;5083400;28;20028;-68
2022/07/15 17:01:25;;;;;;;19.42;9.68;;;26.30;99.90;;;;;;5084064;28;20070;-69
2022/07/15 17:03:51;;;;;;;15.13;9.25;;;26.30;99.90;;;;;;5081863;28;20103;-66
2022/07/15 17:06:18;;;;;;;15.55;9.00;;;26.30;99.90;;;;;;5083101;28;20107;-67
2022/07/15 17:08:45;;;;;;;21.15;9.80;;;26.30;99.90;;;;;;5083289;28;20103;-68
2022/07/15 17:11:11;;;;;;;17.52;10.45;;;26.40;99.90;;;;;;5081277;28;20022;-67
2022/07/15 17:13:38;;;;;;;15.70;9.43;;;26.40;99.90;;;;;;5083094;28;20023;-67
2022/07/15 17:16:04;;;;;;;14.43;9.45;;;26.40;99.90;;;;;;5090514;28;20193;-66
2022/07/15 17:18:31;;;;;;;17.10;9.07;;;26.40;99.90;;;;;;5089221;28;20020;-67
2022/07/15 17:20:57;;;;;;;23.75;10.18;;;26.40;99.90;;;;;;5086013;28;20094;-67
2022/07/15 17:23:24;;;;;;;19.20;10.65;;;26.40;99.90;;;;;;5085193;28;20024;-68
2022/07/15 17:25:51;;;;;;;17.73;10.30;;;26.50;99.90;;;;;;5082556;28;20047;-67
2022/07/15 17:28:17;;;;;;;12.32;8.32;;;26.50;99.90;;;;;;5084315;28;20016;-67
2022/07/15 17:30:44;;;;;;;13.40;9.18;;;26.40;99.90;;;;;;5083025;28;20067;-68
2022/07/15 17:33:10;;;;;;;11.45;9.02;;;26.40;99.90;;;;;;5083670;28;20047;-67
2022/07/15 17:35:37;;;;;;;10.75;7.50;;;26.40;99.90;;;;;;5081868;28;20499;-67
2022/07/15 17:38:04;;;;;;;11.52;7.72;;;26.30;99.90;;;;;;5084533;28;20594;-67
2022/07/15 17:40:31;;;;;;;17.17;8.25;;;26.40;99.90;;;;;;5082979;28;20024;-68
2022/07/15 17:42:57;;;;;;;17.10;8.32;;;26.40;99.90;;;;;;5082836;28;20035;-67
2022/07/15 17:45:24;;;;;;;14.30;9.00;;;26.40;99.90;;;;;;5078769;28;20031;-68
2022/07/15 17:47:51;;;;;;;13.40;8.25;;;26.40;99.90;;;;;;5073166;28;20051;-68
2022/07/15 17:50:17;;;;;;;9.63;6.70;;;26.40;99.90;;;;;;5073227;28;20039;-68
2022/07/15 17:52:44;;;;;;;14.93;7.97;;;26.40;99.90;;;;;;5073174;28;20482;-68
2022/07/15 17:55:10;;;;;;;13.10;6.72;;;26.40;99.90;;;;;;5073006;28;20028;-68
2022/07/15 17:57:37;;;;;;;13.02;6.97;;;26.50;99.90;;;;;;5090435;28;20068;-68
2022/07/15 18:00:06;;;;;;;9.88;6.32;;;26.50;99.90;;;;;;5093502;28;20028;-67
2022/07/15 18:02:33;;;;;;;9.45;6.35;;;26.50;99.90;;;;;;5092359;28;20082;-68
2022/07/15 18:04:59;;;;;;;11.77;6.70;;;26.40;99.90;;;;;;5092952;28;20426;-69
2022/07/15 18:07:26;;;;;;;13.00;7.03;;;26.30;99.90;;;;;;5089642;28;20031;-68
2022/07/15 18:09:52;;;;;;;10.35;6.53;;;26.30;99.90;;;;;;5093219;28;20031;-68
2022/07/15 18:12:19;;;;;;;12.30;7.13;;;26.40;99.90;;;;;;5092910;28;20024;-68
2022/07/15 18:14:45;;;;;;;13.05;7.35;;;26.40;99.90;;;;;;5093545;28;20020;-68
2022/07/15 18:17:12;;;;;;;12.82;8.02;;;26.50;99.90;;;;;;5074931;28;20027;-68
2022/07/15 18:19:38;;;;;;;11.65;8.10;;;26.50;99.90;;;;;;5077127;28;20028;-68
2022/07/15 18:22:05;;;;;;;15.07;10.27;;;26.40;99.90;;;;;;5076875;28;20101;-66
2022/07/15 18:24:31;;;;;;;12.20;9.13;;;26.30;99.90;;;;;;5076916;28;20021;-67
2022/07/15 18:26:58;;;;;;;14.85;7.53;;;26.20;99.90;;;;;;5077093;28;20025;-68
2022/07/15 18:29:25;;;;;;;13.48;10.13;;;26.30;99.90;;;;;;5075489;28;20036;-67
2022/07/15 18:31:51;;;;;;;11.73;8.45;;;26.40;99.90;;;;;;5076597;28;20510;-67
2022/07/15 18:34:18;;;;;;;19.05;8.43;;;26.30;99.90;;;;;;5077033;28;20459;-68
2022/07/15 18:36:45;;;;;;;11.77;7.90;;;26.30;99.90;;;;;;5086781;28;20024;-67
2022/07/15 18:39:12;;;;;;;12.73;8.25;;;26.20;99.90;;;;;;5088364;28;20016;-66
2022/07/15 18:41:38;;;;;;;18.30;8.25;;;26.20;99.90;;;;;;5091156;28;20082;-67
2022/07/15 18:44:05;;;;;;;12.95;7.47;;;26.20;99.90;;;;;;5096850;28;20012;-68
2022/07/15 18:46:32;;;;;;;18.27;8.70;;;26.10;99.90;;;;;;5096346;28;20024;-67
2022/07/15 18:48:59;;;;;;;13.85;8.23;;;26.20;99.90;;;;;;5096405;28;20044;-68
2022/07/15 18:51:25;;;;;;;14.50;9.13;;;26.20;99.90;;;;;;5096513;28;20028;-67
2022/07/15 18:53:52;;;;;;;15.73;9.63;;;26.20;99.90;;;;;;5096458;28;20024;-70
2022/07/15 18:56:19;;;;;;;13.45;9.20;;;26.20;99.90;;;;;;5096257;28;20020;-68
2022/07/15 18:58:46;;;;;;;13.82;7.95;;;26.20;99.90;;;;;;5096273;28;20032;-68
2022/07/15 19:01:14;;;;;;;13.80;8.50;;;26.20;99.90;;;;;;5096319;28;20028;-68
2022/07/15 19:03:41;;;;;;;16.52;9.10;;;26.10;99.90;;;;;;5095896;28;20028;-68
2022/07/15 19:06:08;;;;;;;10.60;8.13;;;26.10;99.90;;;;;;5096340;28;20466;-68
2022/07/15 19:08:34;;;;;;;12.68;8.52;;;26.10;99.90;;;;;;5096636;28;20437;-67
2022/07/15 19:11:01;;;;;;;15.48;9.82;;;26.10;99.90;;;;;;5096306;28;20024;-70
2022/07/15 19:13:28;;;;;;;16.80;9.52;;;26.10;99.90;;;;;;5095559;28;20020;-70
2022/07/15 19:15:54;;;;;;;16.83;10.02;;;26.10;99.90;;;;;;5095845;28;20468;-69
2022/07/15 19:18:21;;;;;;;17.80;10.23;;;26.20;99.90;;;;;;5095121;28;20479;-72
2022/07/15 19:20:48;;;;;;;13.95;11.02;;;26.10;99.90;;;;;;5095726;28;20376;-70
2022/07/15 19:23:14;;;;;;;19.17;10.98;;;26.10;99.90;;;;;;5095650;28;20031;-69
2022/07/15 19:25:41;;;;;;;14.52;9.52;;;26.10;99.90;;;;;;5095746;28;20020;-69
2022/07/15 19:28:08;;;;;;;15.40;8.93;;;26.10;99.90;;;;;;5095785;28;20111;-69
2022/07/15 19:30:35;;;;;;;15.70;9.05;;;26.10;99.90;;;;;;5088654;28;20502;-70
2022/07/15 19:33:02;;;;;;;16.30;9.73;;;26.10;99.90;;;;;;5084153;28;20024;-68
2022/07/15 19:35:29;;;;;;;18.92;8.70;;;26.00;99.90;;;;;;5089335;28;20054;-68
2022/07/15 19:37:56;;;;;;;20.10;8.20;;;26.00;99.90;;;;;;5095398;28;20369;-70
2022/07/15 19:40:23;;;;;;;14.38;8.23;;;26.10;99.90;;;;;;5095130;28;20043;-69
2022/07/15 19:42:49;;;;;;;16.10;8.60;;;26.10;99.90;;;;;;5093940;28;20388;-70
2022/07/15 19:45:16;;;;;;;15.50;8.18;;;26.10;99.90;;;;;;5095401;28;20024;-69
2022/07/15 19:47:43;;;;;;;16.77;7.60;;;26.10;99.90;;;;;;5094764;28;20140;-73
2022/07/15 19:50:10;;;;;;;14.27;8.30;;;26.10;99.90;;;;;;5095051;28;20063;-70
2022/07/15 19:52:37;;;;;;;12.90;7.97;;;26.10;99.90;;;;;;5095007;28;20388;-70
2022/07/15 19:55:04;;;;;;;10.35;7.70;;;26.00;99.90;;;;;;5094959;28;20012;-70
2022/07/15 19:57:30;;;;;;;10.82;7.20;;;26.10;99.90;;;;;;5094998;28;20025;-70
2022/07/15 20:02:28;;;;;;;10.27;6.97;;;26.00;99.90;;;;;;5094927;28;20024;-70
2022/07/15 20:04:54;;;;;;;14.85;7.15;;;26.00;99.90;;;;;;5094974;28;20024;-70
2022/07/15 20:07:21;;;;;;;11.07;7.57;;;26.00;99.90;;;;;;5094816;28;20396;-70
2022/07/15 20:09:47;;;;;;;16.00;7.47;;;25.90;99.90;;;;;;5094823;28;20020;-67
2022/07/15 20:12:14;;;;;;;13.63;7.20;;;26.00;99.90;;;;;;5094737;28;20032;-67
2022/07/15 20:14:40;;;;;;;10.23;7.20;;;25.90;99.90;;;;;;5094783;28;20058;-68
2022/07/15 20:17:07;;;;;;;10.48;7.30;;;25.90;99.90;;;;;;5094747;28;20581;-66
2022/07/15 20:19:34;;;;;;;12.43;7.63;;;25.90;99.90;;;;;;5094612;28;20020;-67
2022/07/15 20:22:00;;;;;;;9.73;7.13;;;25.80;99.90;;;;;;5094700;28;20527;-66
2022/07/15 20:24:27;;;;;;;11.48;7.22;;;25.80;99.90;;;;;;5094611;28;20024;-66
2022/07/15 20:26:53;;;;;;;15.57;7.88;;;25.80;99.90;;;;;;5094397;28;20020;-69
2022/07/15 20:29:20;;;;;;;12.93;7.85;;;25.80;99.90;;;;;;5094371;28;20066;-69
2022/07/15 20:31:47;;;;;;;11.48;8.00;;;25.80;99.90;;;;;;5094500;28;20491;-69
2022/07/15 20:34:13;;;;;;;10.60;7.82;;;25.80;99.90;;;;;;5094251;28;20024;-68
2022/07/15 20:36:40;;;;;;;15.82;9.20;;;25.80;99.90;;;;;;5094467;28;20048;-68
2022/07/15 20:39:07;;;;;;;11.77;8.55;;;25.80;99.90;;;;;;5093699;28;20017;-68
2022/07/15 20:41:33;;;;;;;11.52;9.10;;;25.80;99.90;;;;;;5094031;28;20438;-68
2022/07/15 20:44:00;;;;;;;11.05;8.20;;;25.80;99.90;;;;;;5094176;28;20031;-68
2022/07/15 20:46:26;;;;;;;9.23;7.25;;;25.80;99.90;;;;;;5094111;28;20031;-68
2022/07/15 20:48:53;;;;;;;9.32;7.50;;;25.80;99.90;;;;;;5093683;28;20055;-68
2022/07/15 20:51:20;;;;;;;9.60;7.47;;;25.70;99.90;;;;;;5094142;28;20388;-68
2022/07/15 20:53:46;;;;;;;13.32;7.45;;;25.80;99.90;;;;;;5094104;28;20024;-67
2022/07/15 20:56:13;;;;;;;10.07;6.60;;;25.70;99.90;;;;;;5093850;28;20031;-68
2022/07/15 20:58:40;;;;;;;9.00;6.93;;;25.70;99.90;;;;;;5093960;28;20012;-68
2022/07/15 21:01:06;;;;;;;7.13;6.40;;;25.80;99.90;;;;;;5093816;28;20035;-69
2022/07/15 21:03:33;;;;;;;11.25;7.28;;;25.80;99.90;;;;;;5093624;28;20589;-68
2022/07/15 21:06:00;;;;;;;8.30;6.25;;;25.80;99.90;;;;;;5093981;28;20020;-67
2022/07/15 21:08:26;;;;;;;11.63;7.55;;;25.80;99.90;;;;;;5093688;28;20396;-68
2022/07/15 21:10:53;;;;;;;7.32;6.63;;;25.80;99.90;;;;;;5093352;28;20020;-67
2022/07/15 21:13:19;;;;;;;7.40;6.65;;;25.70;99.90;;;;;;5093651;28;20016;-67
2022/07/15 21:15:46;;;;;;;9.82;6.95;;;25.70;99.90;;;;;;5093597;28;20099;-68
2022/07/15 21:18:12;;;;;;;9.00;6.35;;;25.70;99.90;;;;;;5093525;28;20395;-69
2022/07/15 21:20:39;;;;;;;9.82;7.38;;;25.70;99.90;;;;;;5093423;28;20111;-67
2022/07/15 21:23:06;;;;;;;13.63;6.68;;;25.70;99.90;;;;;;5093849;28;20081;-68
2022/07/15 21:28:02;;;;;;;10.15;7.00;;;25.70;99.90;;;;;;5093905;28;20032;-68
2022/07/15 21:30:28;;;;;;;12.27;7.05;;;25.70;99.90;;;;;;5093397;28;20028;-68
2022/07/15 21:32:55;;;;;;;9.43;6.78;;;25.70;99.90;;;;;;5093457;28;20016;-68